Time;durP1;ratioP1;P1;durP2;ratioP2;P2;SDS_P1;SDS_P2;PMS_P1;PMS_P2;Temp;Humidity;BMP_temperature;BMP_pressure;BME280_temperature;BME280_humidity;BME280_pressure;Samples;Min_cycle;Max_cycle;Signal;HPM_P1;HPM_P2
2023/08/27 00:02:55;;;;;;;6.65;4.93;;;16.80;99.90;;;;;;6254419;28;20060;-80
2023/08/27 00:05:57;;;;;;;9.32;4.88;;;16.80;99.90;;;;;;6254216;28;20065;-81
2023/08/27 00:09:00;;;;;;;5.20;4.80;;;16.90;99.90;;;;;;6253940;28;20071;-80
2023/08/27 00:12:03;;;;;;;13.27;4.63;;;16.90;99.90;;;;;;6254381;28;20493;-80
2023/08/27 00:15:06;;;;;;;9.73;5.10;;;16.90;99.90;;;;;;6254251;28;20049;-79
2023/08/27 00:18:08;;;;;;;14.45;5.32;;;16.90;99.90;;;;;;6253479;28;20050;-80
2023/08/27 00:21:10;;;;;;;7.35;5.43;;;16.90;99.90;;;;;;6253537;28;20052;-81
2023/08/27 00:24:13;;;;;;;8.45;4.80;;;16.90;99.90;;;;;;6251208;28;20131;-79
2023/08/27 00:27:14;;;;;;;12.48;5.30;;;16.90;99.90;;;;;;6253770;28;20050;-81
2023/08/27 00:30:16;;;;;;;11.77;6.05;;;16.90;99.90;;;;;;6253379;28;20041;-81
2023/08/27 00:33:18;;;;;;;11.05;6.47;;;16.90;99.90;;;;;;6253161;28;20060;-80
2023/08/27 00:36:20;;;;;;;8.30;5.95;;;16.90;99.90;;;;;;6252238;28;20041;-79
2023/08/27 00:39:23;;;;;;;9.77;6.13;;;16.90;99.90;;;;;;6253790;28;20064;-79
2023/08/27 00:42:24;;;;;;;7.97;4.85;;;16.80;99.90;;;;;;6252928;28;20163;-80
2023/08/27 00:45:26;;;;;;;8.77;6.18;;;16.90;99.90;;;;;;6253674;28;20046;-78
2023/08/27 00:48:28;;;;;;;7.55;5.55;;;16.90;99.90;;;;;;6252952;28;20047;-80
2023/08/27 00:51:32;;;;;;;5.28;4.78;;;16.90;99.90;;;;;;6253231;28;20059;-79
2023/08/27 00:54:36;;;;;;;7.95;5.45;;;16.90;99.90;;;;;;6254454;28;20519;-79
2023/08/27 00:57:40;;;;;;;8.48;4.82;;;16.90;99.90;;;;;;6253644;28;20463;-80
2023/08/27 01:00:43;;;;;;;6.82;4.35;;;16.90;99.90;;;;;;6254585;28;20045;-79
2023/08/27 01:03:45;;;;;;;9.55;7.18;;;16.90;99.90;;;;;;6253985;28;20045;-79
2023/08/27 01:06:46;;;;;;;8.23;4.45;;;16.90;99.90;;;;;;6253675;28;20525;-79
2023/08/27 01:09:57;;;;;;;11.55;6.72;;;16.80;99.90;;;;;;6253934;28;20049;-80
2023/08/27 01:13:03;;;;;;;8.35;5.13;;;16.80;99.90;;;;;;6253479;28;20072;-78
2023/08/27 01:16:06;;;;;;;6.68;5.32;;;16.70;99.90;;;;;;6253149;28;20049;-78
2023/08/27 01:19:14;;;;;;;6.18;5.57;;;16.80;99.90;;;;;;6252771;28;20058;-80
2023/08/27 01:22:17;;;;;;;9.98;7.50;;;16.90;99.90;;;;;;6252738;28;20049;-79
2023/08/27 01:25:22;;;;;;;7.55;5.60;;;16.90;99.90;;;;;;6252370;28;20069;-80
2023/08/27 01:28:29;;;;;;;7.85;4.40;;;16.90;99.90;;;;;;6253537;28;20048;-78
2023/08/27 01:31:35;;;;;;;8.15;5.25;;;17.00;99.90;;;;;;6253587;28;20056;-81
2023/08/27 01:34:39;;;;;;;9.95;5.60;;;16.90;99.90;;;;;;6251725;28;20050;-80
2023/08/27 01:37:42;;;;;;;13.98;5.50;;;16.90;99.90;;;;;;6252666;28;20053;-80
2023/08/27 01:40:44;;;;;;;7.68;4.80;;;16.90;99.90;;;;;;6252200;28;20061;-78
2023/08/27 01:43:46;;;;;;;6.95;5.40;;;16.90;99.90;;;;;;6250749;28;20049;-81
2023/08/27 01:46:47;;;;;;;9.25;5.38;;;16.90;99.90;;;;;;6252447;28;20045;-80
2023/08/27 01:49:49;;;;;;;13.82;7.03;;;16.90;99.90;;;;;;6252267;28;20049;-79
2023/08/27 01:52:53;;;;;;;5.28;4.82;;;17.00;99.90;;;;;;6251667;28;20061;-80
2023/08/27 01:55:54;;;;;;;8.20;6.68;;;17.00;99.90;;;;;;6251521;28;20436;-80
2023/08/27 01:58:56;;;;;;;7.15;5.30;;;17.00;99.90;;;;;;6251944;28;20505;-81
2023/08/27 02:01:58;;;;;;;5.82;5.32;;;17.00;99.90;;;;;;6250855;28;20056;-81
2023/08/27 02:04:59;;;;;;;6.40;4.63;;;17.00;99.90;;;;;;6250903;28;20072;-78
2023/08/27 02:08:03;;;;;;;7.50;3.75;;;16.90;99.90;;;;;;6251920;28;20705;-79
2023/08/27 02:11:04;;;;;;;5.78;5.18;;;16.90;99.90;;;;;;6251297;28;20048;-80
2023/08/27 02:14:06;;;;;;;6.85;5.75;;;16.90;99.90;;;;;;6250901;28;20049;-79
2023/08/27 02:17:08;;;;;;;7.00;5.43;;;16.90;99.90;;;;;;6250491;28;20051;-79
2023/08/27 02:20:11;;;;;;;8.02;5.80;;;16.90;99.90;;;;;;6249988;28;20056;-80
2023/08/27 02:23:14;;;;;;;4.95;4.07;;;16.90;99.90;;;;;;6251478;28;20072;-79
2023/08/27 02:26:15;;;;;;;7.55;4.95;;;16.90;99.90;;;;;;6251525;28;20072;-80
2023/08/27 02:29:17;;;;;;;7.43;4.93;;;16.90;99.90;;;;;;6250870;28;20516;-79
2023/08/27 02:32:19;;;;;;;8.77;4.22;;;16.90;99.90;;;;;;6250542;28;20049;-80
2023/08/27 02:35:20;;;;;;;7.68;4.80;;;16.90;99.90;;;;;;6250600;28;20525;-79
2023/08/27 02:38:23;;;;;;;7.60;5.50;;;16.90;99.90;;;;;;6250354;28;20056;-80
2023/08/27 02:41:25;;;;;;;13.50;5.32;;;16.90;99.90;;;;;;6250679;28;20042;-79
2023/08/27 02:44:27;;;;;;;8.48;4.97;;;16.90;99.90;;;;;;6250188;28;20042;-79
2023/08/27 02:47:28;;;;;;;6.40;4.45;;;16.90;99.90;;;;;;6250890;28;20060;-80
2023/08/27 02:50:30;;;;;;;8.73;5.00;;;16.90;99.90;;;;;;6250378;28;20049;-80
2023/08/27 02:53:33;;;;;;;12.95;4.93;;;16.90;99.90;;;;;;6250159;28;20060;-80
2023/08/27 02:56:34;;;;;;;5.90;5.25;;;16.90;99.90;;;;;;6249597;28;20049;-80
2023/08/27 02:59:36;;;;;;;15.38;4.95;;;16.80;99.90;;;;;;6250360;28;20049;-80
2023/08/27 03:02:38;;;;;;;9.65;5.30;;;16.80;99.90;;;;;;6250015;28;20050;-80
2023/08/27 03:05:40;;;;;;;13.18;6.25;;;16.80;99.90;;;;;;6250295;28;20052;-80
2023/08/27 03:08:43;;;;;;;13.05;5.30;;;16.90;99.90;;;;;;6250225;28;20041;-78
2023/08/27 03:11:45;;;;;;;7.85;5.57;;;16.90;99.90;;;;;;6250850;28;20046;-79
2023/08/27 03:14:46;;;;;;;5.25;4.75;;;16.90;99.90;;;;;;6250090;28;20046;-80
2023/08/27 03:17:48;;;;;;;11.32;4.43;;;16.90;99.90;;;;;;6250577;28;20041;-79
2023/08/27 03:20:50;;;;;;;6.72;4.93;;;16.90;99.90;;;;;;6250828;28;20038;-81
2023/08/27 03:23:53;;;;;;;7.55;5.38;;;16.90;99.90;;;;;;6254033;28;20060;-80
2023/08/27 03:26:55;;;;;;;7.05;5.53;;;16.90;99.90;;;;;;6254775;28;20049;-79
2023/08/27 03:29:56;;;;;;;11.15;5.43;;;16.90;99.90;;;;;;6254571;28;20463;-81
2023/08/27 03:32:58;;;;;;;8.68;4.70;;;16.90;99.90;;;;;;6254583;28;20042;-80
2023/08/27 03:36:02;;;;;;;8.02;5.45;;;16.90;99.90;;;;;;6254967;28;20049;-81
2023/08/27 03:39:05;;;;;;;7.47;5.65;;;16.80;99.90;;;;;;6255829;28;20056;-80
2023/08/27 03:42:07;;;;;;;14.05;7.07;;;16.90;99.90;;;;;;6254533;28;20528;-80
2023/08/27 03:45:10;;;;;;;7.70;6.57;;;16.90;99.90;;;;;;6254061;28;20056;-80
2023/08/27 03:48:12;;;;;;;6.22;4.70;;;17.00;99.90;;;;;;6253757;28;20056;-81
2023/08/27 03:51:14;;;;;;;7.43;5.07;;;17.00;99.90;;;;;;6254889;28;20052;-79
2023/08/27 03:54:17;;;;;;;12.35;5.65;;;17.00;99.90;;;;;;6254785;28;20053;-79
2023/08/27 03:57:19;;;;;;;5.80;5.18;;;17.00;99.90;;;;;;6255021;28;20049;-80
2023/08/27 04:00:21;;;;;;;10.15;5.95;;;16.90;99.90;;;;;;6253836;28;20045;-79
2023/08/27 04:03:22;;;;;;;8.07;4.75;;;16.90;99.90;;;;;;6257528;28;20480;-81
2023/08/27 04:06:24;;;;;;;9.90;4.95;;;16.90;99.90;;;;;;6257562;28;20430;-79
2023/08/27 04:09:27;;;;;;;5.35;4.85;;;16.90;99.90;;;;;;6258091;28;20057;-79
2023/08/27 04:12:29;;;;;;;15.50;5.40;;;16.90;99.90;;;;;;6257716;28;20061;-79
2023/08/27 04:15:31;;;;;;;7.15;5.28;;;16.90;99.90;;;;;;6258705;28;20056;-79
2023/08/27 04:18:33;;;;;;;8.02;4.80;;;16.90;99.90;;;;;;6258118;28;20054;-80
2023/08/27 04:21:35;;;;;;;13.77;5.32;;;16.90;99.90;;;;;;6257738;28;20045;-79
2023/08/27 04:24:38;;;;;;;8.00;5.00;;;16.80;99.90;;;;;;6259000;28;20041;-80
2023/08/27 04:27:40;;;;;;;12.30;4.75;;;16.80;99.90;;;;;;6259363;28;20053;-80
2023/08/27 04:30:41;;;;;;;7.97;4.72;;;16.80;99.90;;;;;;6258538;28;20048;-79
2023/08/27 04:33:43;;;;;;;6.75;5.07;;;16.80;99.90;;;;;;6258391;28;20049;-80
2023/08/27 04:36:45;;;;;;;7.97;4.82;;;16.80;99.90;;;;;;6257495;28;20057;-80
2023/08/27 04:39:48;;;;;;;7.72;5.82;;;16.70;99.90;;;;;;6257575;28;20133;-80
2023/08/27 04:42:50;;;;;;;8.00;5.38;;;16.70;99.90;;;;;;6258163;28;20060;-80
2023/08/27 04:45:52;;;;;;;5.75;5.13;;;16.70;99.90;;;;;;6257103;28;20049;-79
2023/08/27 04:48:54;;;;;;;14.77;5.50;;;16.70;99.90;;;;;;6256537;28;20049;-79
2023/08/27 04:51:56;;;;;;;9.07;4.97;;;16.70;99.90;;;;;;6257315;28;20037;-80
2023/08/27 04:54:59;;;;;;;6.97;5.50;;;16.70;99.90;;;;;;6258075;28;20049;-79
2023/08/27 04:58:00;;;;;;;10.85;5.20;;;16.70;99.90;;;;;;6258099;28;20060;-80
2023/08/27 05:01:02;;;;;;;8.50;5.07;;;16.70;99.90;;;;;;6256594;28;20048;-81
2023/08/27 05:04:04;;;;;;;9.10;5.32;;;16.70;99.90;;;;;;6257348;28;20049;-78
2023/08/27 05:07:06;;;;;;;6.78;4.72;;;16.60;99.90;;;;;;6258296;28;20050;-79
2023/08/27 05:10:09;;;;;;;7.47;4.90;;;16.60;99.90;;;;;;6257434;28;20061;-80
2023/08/27 05:13:11;;;;;;;10.25;5.13;;;16.60;99.90;;;;;;6258066;28;20141;-79
2023/08/27 05:16:13;;;;;;;6.70;4.50;;;16.60;99.90;;;;;;6258066;28;20063;-80
2023/08/27 05:19:14;;;;;;;5.45;4.95;;;16.60;99.90;;;;;;6256911;28;20053;-80
2023/08/27 05:22:16;;;;;;;7.95;4.88;;;16.60;99.90;;;;;;6256448;28;20041;-80
2023/08/27 05:25:19;;;;;;;9.25;5.18;;;16.50;99.90;;;;;;6257312;28;20060;-79
2023/08/27 05:28:21;;;;;;;11.13;6.88;;;16.60;99.90;;;;;;6257347;28;20408;-80
2023/08/27 05:31:23;;;;;;;12.25;5.75;;;16.60;99.90;;;;;;6256408;28;20045;-79
2023/08/27 05:34:25;;;;;;;7.13;5.90;;;16.70;99.90;;;;;;6256991;28;20060;-80
2023/08/27 05:37:27;;;;;;;8.27;6.72;;;16.80;99.90;;;;;;6257941;28;20049;-79
2023/08/27 05:40:30;;;;;;;12.65;6.07;;;16.80;99.90;;;;;;6257810;28;20041;-79
2023/08/27 05:43:32;;;;;;;13.15;6.70;;;16.90;99.90;;;;;;6258118;28;20049;-79
2023/08/27 05:46:34;;;;;;;11.18;5.63;;;17.00;99.90;;;;;;6258267;28;20049;-80
2023/08/27 05:49:35;;;;;;;6.82;5.32;;;17.20;99.90;;;;;;6258151;28;20050;-80
2023/08/27 05:52:37;;;;;;;4.97;4.35;;;17.30;99.90;;;;;;6255723;28;20048;-79
2023/08/27 05:55:40;;;;;;;14.13;5.13;;;17.30;99.90;;;;;;6253395;28;20049;-80
2023/08/27 05:58:42;;;;;;;10.18;6.50;;;17.40;99.90;;;;;;6253311;28;20045;-80
2023/08/27 06:01:44;;;;;;;4.95;4.53;;;17.50;99.90;;;;;;6252933;28;20053;-79
2023/08/27 06:04:45;;;;;;;6.07;4.70;;;17.60;99.90;;;;;;6254110;28;20125;-80
2023/08/27 06:07:47;;;;;;;6.75;4.88;;;17.60;99.90;;;;;;6253573;28;20049;-80
2023/08/27 06:10:50;;;;;;;6.22;4.00;;;17.60;99.90;;;;;;6252470;28;20056;-79
2023/08/27 06:13:52;;;;;;;7.18;4.40;;;17.70;99.90;;;;;;6252771;28;20049;-79
2023/08/27 06:16:53;;;;;;;4.18;3.78;;;17.80;99.90;;;;;;6252738;28;20058;-80
2023/08/27 06:19:55;;;;;;;6.22;4.05;;;17.80;99.90;;;;;;6258844;28;20053;-78
2023/08/27 06:22:57;;;;;;;10.10;6.22;;;17.90;99.90;;;;;;6266679;28;20046;-79
2023/08/27 06:26:04;;;;;;;7.00;4.60;;;17.90;99.90;;;;;;6254673;28;20421;-81
2023/08/27 06:29:06;;;;;;;8.05;4.95;;;18.00;99.90;;;;;;6253735;28;20152;-79
2023/08/27 06:32:08;;;;;;;5.25;4.80;;;18.00;99.90;;;;;;6253742;28;20095;-80
2023/08/27 06:35:10;;;;;;;11.23;5.68;;;18.10;99.90;;;;;;6253988;28;20045;-80
2023/08/27 06:38:11;;;;;;;8.45;4.13;;;18.10;99.90;;;;;;6253999;28;20061;-80
2023/08/27 06:41:14;;;;;;;8.70;4.72;;;18.20;99.90;;;;;;6254217;28;20056;-79
2023/08/27 06:44:16;;;;;;;8.35;4.15;;;18.30;99.90;;;;;;6254031;28;20050;-80
2023/08/27 06:47:18;;;;;;;5.80;4.53;;;18.40;99.90;;;;;;6253348;28;20055;-79
2023/08/27 06:50:20;;;;;;;5.07;3.97;;;18.30;99.90;;;;;;6255393;28;20057;-79
2023/08/27 06:53:21;;;;;;;4.75;4.07;;;18.40;99.90;;;;;;6256069;28;20041;-80
2023/08/27 06:56:26;;;;;;;4.88;4.43;;;18.40;99.90;;;;;;6254051;28;20045;-80
2023/08/27 06:59:27;;;;;;;5.63;4.40;;;18.50;99.90;;;;;;6225351;28;20041;-80
2023/08/27 07:02:29;;;;;;;9.65;4.95;;;18.60;99.90;;;;;;6242775;28;20121;-79
2023/08/27 07:05:31;;;;;;;9.68;4.28;;;18.70;99.90;;;;;;6250278;28;20176;-81
2023/08/27 07:08:33;;;;;;;5.80;4.07;;;18.70;99.90;;;;;;6246094;28;20065;-82
2023/08/27 07:11:36;;;;;;;10.23;5.00;;;18.80;99.90;;;;;;6249772;28;20048;-82
2023/08/27 07:14:38;;;;;;;7.05;4.13;;;18.80;99.90;;;;;;6250501;28;20049;-80
2023/08/27 07:17:41;;;;;;;7.05;4.25;;;19.00;99.90;;;;;;6249059;28;20151;-82
2023/08/27 07:20:42;;;;;;;9.85;4.50;;;19.20;99.90;;;;;;6248981;28;20048;-79
2023/08/27 07:23:44;;;;;;;5.72;3.90;;;19.30;99.90;;;;;;6250136;28;20058;-81
2023/08/27 07:26:47;;;;;;;6.72;4.82;;;19.50;99.90;;;;;;6249097;28;20137;-80
2023/08/27 07:29:49;;;;;;;6.40;5.03;;;19.80;99.90;;;;;;6248638;28;20045;-80
2023/08/27 07:32:51;;;;;;;8.43;5.30;;;19.90;99.90;;;;;;6249498;28;20041;-80
2023/08/27 07:35:53;;;;;;;8.25;4.43;;;19.90;99.90;;;;;;6250151;28;20153;-81
2023/08/27 07:38:55;;;;;;;19.70;7.13;;;20.00;99.90;;;;;;6250436;28;20057;-82
2023/08/27 07:41:59;;;;;;;7.50;4.45;;;20.10;99.90;;;;;;6249945;28;20516;-81
2023/08/27 07:45:02;;;;;;;8.68;4.70;;;20.30;99.90;;;;;;6250512;28;20175;-82
2023/08/27 07:48:04;;;;;;;11.18;4.88;;;20.40;99.90;;;;;;6248670;28;20053;-80
2023/08/27 07:51:06;;;;;;;4.35;3.95;;;20.50;99.90;;;;;;6249794;28;20049;-80
2023/08/27 07:54:08;;;;;;;5.47;4.75;;;20.60;99.90;;;;;;6250084;28;20535;-81
2023/08/27 07:57:11;;;;;;;8.10;4.82;;;20.60;99.90;;;;;;6250519;28;20052;-82
2023/08/27 08:00:14;;;;;;;5.35;4.20;;;20.60;99.90;;;;;;6249451;28;20056;-81
2023/08/27 08:03:16;;;;;;;6.07;3.63;;;20.60;99.90;;;;;;6250440;28;20061;-82
2023/08/27 08:06:17;;;;;;;5.35;4.80;;;20.50;99.90;;;;;;6250420;28;20045;-82
2023/08/27 08:09:19;;;;;;;6.65;4.53;;;20.50;99.90;;;;;;6250931;28;20156;-81
2023/08/27 08:12:22;;;;;;;5.40;4.40;;;20.30;99.90;;;;;;6254559;28;20416;-80
2023/08/27 08:15:24;;;;;;;6.65;4.97;;;20.20;99.90;;;;;;6247420;28;20118;-79
2023/08/27 08:18:26;;;;;;;9.38;5.25;;;20.10;99.90;;;;;;6248586;28;20100;-80
2023/08/27 08:21:28;;;;;;;9.23;5.07;;;20.20;99.90;;;;;;6249762;28;20041;-82
2023/08/27 08:24:29;;;;;;;8.93;5.45;;;20.30;99.90;;;;;;6250442;28;20124;-82
2023/08/27 08:27:33;;;;;;;8.15;4.20;;;20.20;99.90;;;;;;6250580;28;20057;-80
2023/08/27 08:30:34;;;;;;;4.88;4.38;;;20.20;99.90;;;;;;6253602;28;20038;-81
2023/08/27 08:33:36;;;;;;;11.02;4.95;;;20.20;99.90;;;;;;6254078;28;20069;-81
2023/08/27 08:36:38;;;;;;;6.50;4.35;;;20.40;99.90;;;;;;6254341;28;20072;-81
2023/08/27 08:39:40;;;;;;;5.45;4.22;;;20.50;99.90;;;;;;6253584;28;20056;-81
2023/08/27 08:42:52;;;;;;;13.02;5.28;;;20.50;99.90;;;;;;6253752;28;20156;-81
2023/08/27 08:46:03;;;;;;;5.28;4.55;;;20.60;99.90;;;;;;6252158;28;20051;-80
2023/08/27 08:49:11;;;;;;;4.28;3.88;;;20.70;99.90;;;;;;6253205;28;20056;-82
2023/08/27 08:52:18;;;;;;;5.70;3.80;;;20.90;99.90;;;;;;6253752;28;20082;-82
2023/08/27 08:55:22;;;;;;;5.23;3.17;;;21.10;99.90;;;;;;6253448;28;20054;-81
2023/08/27 08:58:28;;;;;;;3.88;3.33;;;21.20;99.90;;;;;;6255346;28;20598;-81
2023/08/27 09:01:30;;;;;;;3.67;3.33;;;21.30;99.90;;;;;;6255656;28;20499;-82
2023/08/27 09:04:34;;;;;;;11.38;3.75;;;21.30;99.90;;;;;;6255700;28;20076;-81
2023/08/27 09:07:37;;;;;;;7.82;3.42;;;21.50;99.90;;;;;;6253183;28;20076;-81
2023/08/27 09:10:39;;;;;;;3.65;2.97;;;21.40;99.90;;;;;;6254533;28;20041;-80
2023/08/27 09:13:42;;;;;;;3.72;3.13;;;21.40;99.90;;;;;;6255257;28;20476;-80
2023/08/27 09:16:44;;;;;;;4.35;3.45;;;21.70;99.90;;;;;;6253334;28;20045;-81
2023/08/27 09:19:46;;;;;;;5.40;3.80;;;21.70;99.90;;;;;;6255054;28;20045;-81
2023/08/27 09:22:48;;;;;;;5.35;2.88;;;21.90;99.90;;;;;;6257287;28;20045;-80
2023/08/27 09:25:52;;;;;;;8.25;3.83;;;22.40;99.90;;;;;;6257401;28;20052;-81
2023/08/27 09:28:55;;;;;;;3.78;2.92;;;22.70;99.90;;;;;;6258048;28;20057;-80
2023/08/27 09:31:57;;;;;;;6.90;3.45;;;23.00;99.90;;;;;;6256474;28;20049;-81
2023/08/27 09:35:00;;;;;;;11.75;3.70;;;23.30;99.90;;;;;;6257021;28;20056;-81
2023/08/27 09:38:01;;;;;;;7.07;3.28;;;23.20;99.90;;;;;;6256312;28;20433;-80
2023/08/27 09:41:14;;;;;;;3.67;2.75;;;23.30;99.90;;;;;;6257346;28;20523;-80
2023/08/27 09:44:17;;;;;;;6.65;3.17;;;23.30;99.90;;;;;;6256224;28;20041;-80
2023/08/27 09:47:30;;;;;;;5.80;3.03;;;23.20;99.90;;;;;;6255886;28;20497;-81
2023/08/27 09:50:32;;;;;;;4.38;3.25;;;23.50;99.90;;;;;;6257454;28;20045;-80
2023/08/27 09:53:34;;;;;;;7.43;3.22;;;23.50;99.90;;;;;;6259717;28;20045;-81
2023/08/27 09:56:37;;;;;;;2.88;2.42;;;23.50;99.90;;;;;;6257591;28;20061;-80
2023/08/27 09:59:45;;;;;;;4.03;2.55;;;23.80;99.90;;;;;;6254655;28;20053;-81
2023/08/27 10:02:49;;;;;;;3.97;2.65;;;24.00;99.90;;;;;;6254526;28;20136;-81
2023/08/27 10:05:51;;;;;;;4.28;3.17;;;24.00;99.90;;;;;;6254966;28;20072;-81
2023/08/27 10:08:55;;;;;;;5.10;2.58;;;24.10;99.90;;;;;;6256647;28;20467;-80
2023/08/27 10:11:58;;;;;;;4.97;2.88;;;24.20;99.90;;;;;;6264549;28;20132;-81
2023/08/27 10:15:04;;;;;;;3.60;2.38;;;24.30;99.90;;;;;;6256100;28;20044;-80
2023/08/27 10:18:12;;;;;;;4.20;2.47;;;24.50;99.90;;;;;;6270594;28;20059;-79
2023/08/27 10:21:13;;;;;;;5.13;2.78;;;24.40;99.90;;;;;;6261799;28;20057;-80
2023/08/27 10:24:15;;;;;;;4.28;2.65;;;24.60;99.90;;;;;;6267875;28;20539;-79
2023/08/27 10:27:18;;;;;;;3.38;1.90;;;24.50;99.90;;;;;;6269496;28;20138;-80
2023/08/27 10:30:21;;;;;;;4.50;2.15;;;24.40;99.90;;;;;;6261515;28;20532;-80
2023/08/27 10:33:23;;;;;;;4.22;2.33;;;24.40;99.90;;;;;;6261783;28;20049;-80
2023/08/27 10:36:31;;;;;;;3.17;2.58;;;24.20;99.90;;;;;;6263056;28;20048;-80
2023/08/27 10:39:34;;;;;;;4.80;3.38;;;24.30;99.90;;;;;;6274683;28;20067;-79
2023/08/27 10:42:37;;;;;;;2.55;2.28;;;24.50;99.90;;;;;;6272838;28;20415;-81
2023/08/27 10:45:40;;;;;;;3.50;2.38;;;25.00;99.40;;;;;;6260923;28;20042;-79
2023/08/27 10:48:48;;;;;;;3.92;2.28;;;25.20;98.70;;;;;;6278780;28;20055;-80
2023/08/27 10:51:49;;;;;;;;;;;25.20;98.20;;;;;;6243257;28;20059;-80
2023/08/27 10:55:00;;;;;;;6.38;2.00;;;25.10;97.80;;;;;;6280933;28;20363;-81
2023/08/27 10:58:15;;;;;;;3.47;2.08;;;25.00;97.70;;;;;;6280006;28;20075;-79
2023/08/27 11:01:18;;;;;;;4.65;3.10;;;25.10;97.90;;;;;;6274760;28;20049;-80
2023/08/27 11:04:20;;;;;;;3.15;2.03;;;25.30;97.00;;;;;;6252021;28;20199;-79
2023/08/27 11:07:22;;;;;;;4.28;1.80;;;25.10;96.60;;;;;;6254232;28;20055;-81
2023/08/27 11:10:31;;;;;;;3.70;2.67;;;24.80;96.40;;;;;;6253101;28;20045;-80
2023/08/27 11:13:36;;;;;;;2.78;2.28;;;24.80;96.90;;;;;;6253258;28;20034;-80
2023/08/27 11:16:48;;;;;;;7.28;2.10;;;25.00;97.10;;;;;;6253844;28;20079;-80
2023/08/27 11:19:50;;;;;;;3.35;2.20;;;25.10;96.20;;;;;;6252747;28;20049;-81
2023/08/27 11:22:56;;;;;;;2.33;2.08;;;25.10;96.20;;;;;;6249504;28;20450;-80
2023/08/27 11:26:00;;;;;;;8.18;2.80;;;25.20;96.00;;;;;;6243981;28;20504;-81
2023/08/27 11:29:03;;;;;;;4.05;2.38;;;25.10;95.30;;;;;;6249363;28;20046;-83
2023/08/27 11:32:08;;;;;;;4.03;2.33;;;25.10;95.50;;;;;;6249503;28;20053;-82
2023/08/27 11:35:14;;;;;;;5.50;2.70;;;25.30;95.50;;;;;;6249705;28;20053;-83
2023/08/27 11:38:15;;;;;;;4.72;2.20;;;25.50;95.30;;;;;;6249731;28;20052;-81
2023/08/27 11:41:17;;;;;;;2.70;2.50;;;25.70;94.90;;;;;;6250631;28;20054;-81
2023/08/27 11:44:18;;;;;;;3.05;2.13;;;25.90;94.40;;;;;;6252197;28;20053;-82
2023/08/27 11:47:22;;;;;;;2.08;1.80;;;26.10;93.40;;;;;;6253081;28;20053;-80
2023/08/27 11:50:24;;;;;;;4.45;2.25;;;26.00;92.80;;;;;;6251391;28;20050;-83
2023/08/27 11:53:26;;;;;;;3.42;2.60;;;25.80;92.40;;;;;;6254086;28;20044;-83
2023/08/27 11:56:28;;;;;;;2.63;2.22;;;25.50;92.50;;;;;;6254814;28;20047;-82
2023/08/27 11:59:30;;;;;;;4.90;2.00;;;25.40;92.50;;;;;;6254750;28;20053;-83
2023/08/27 12:02:34;;;;;;;3.13;2.25;;;25.10;92.40;;;;;;6253861;28;20055;-81
2023/08/27 12:05:36;;;;;;;5.22;2.15;;;24.80;92.30;;;;;;6255195;28;20045;-83
2023/08/27 12:08:38;;;;;;;2.03;1.83;;;24.60;92.50;;;;;;6254529;28;20042;-82
2023/08/27 12:11:40;;;;;;;7.28;2.72;;;24.60;93.00;;;;;;6247516;28;20054;-82
2023/08/27 12:14:42;;;;;;;3.60;2.40;;;24.70;93.10;;;;;;6255877;28;20050;-82
2023/08/27 12:17:47;;;;;;;6.38;2.60;;;24.60;92.80;;;;;;6256687;28;20049;-81
2023/08/27 12:20:49;;;;;;;3.92;2.33;;;24.60;92.80;;;;;;6262985;28;20041;-80
2023/08/27 12:23:52;;;;;;;6.00;2.13;;;24.70;92.70;;;;;;6263827;28;20109;-81
2023/08/27 12:26:54;;;;;;;3.00;2.50;;;24.60;92.60;;;;;;6261423;28;20052;-81
2023/08/27 12:29:55;;;;;;;6.38;3.70;;;24.60;92.80;;;;;;6262290;28;20042;-82
2023/08/27 12:32:59;;;;;;;4.78;2.90;;;24.70;92.90;;;;;;6260169;28;20064;-82
2023/08/27 12:36:04;;;;;;;3.42;2.85;;;24.80;92.70;;;;;;6259806;28;20057;-80
2023/08/27 12:39:06;;;;;;;4.15;2.42;;;24.60;92.70;;;;;;6260913;28;20049;-80
2023/08/27 12:42:09;;;;;;;6.43;3.15;;;24.40;93.10;;;;;;6259793;28;20135;-81
2023/08/27 12:45:11;;;;;;;6.43;3.83;;;24.20;93.50;;;;;;6260425;28;20538;-81
2023/08/27 12:48:15;;;;;;;4.50;3.22;;;24.10;93.60;;;;;;6261611;28;20057;-81
2023/08/27 12:51:17;;;;;;;3.88;3.55;;;23.90;94.10;;;;;;6261621;28;20053;-80
2023/08/27 12:54:22;;;;;;;3.72;2.78;;;23.70;94.30;;;;;;6259969;28;20045;-80
2023/08/27 12:57:24;;;;;;;2.78;2.50;;;23.60;94.80;;;;;;6259605;28;20068;-81
2023/08/27 13:00:26;;;;;;;4.70;2.65;;;23.50;95.10;;;;;;6257761;28;20049;-80
2023/08/27 13:03:29;;;;;;;4.20;2.70;;;23.40;95.00;;;;;;6260014;28;20065;-80
2023/08/27 13:06:31;;;;;;;2.40;2.20;;;23.20;95.60;;;;;;6258691;28;20053;-79
2023/08/27 13:09:33;;;;;;;3.38;2.65;;;23.20;95.80;;;;;;6256574;28;20156;-80
2023/08/27 13:12:35;;;;;;;3.20;2.75;;;23.30;96.00;;;;;;6261812;28;20041;-79
2023/08/27 13:15:37;;;;;;;3.70;2.70;;;23.40;96.20;;;;;;6260351;28;20042;-79
2023/08/27 13:18:40;;;;;;;2.70;2.50;;;23.50;96.20;;;;;;6259128;28;20056;-80
2023/08/27 13:21:44;;;;;;;3.45;1.80;;;23.50;96.10;;;;;;6259451;28;20041;-79
2023/08/27 13:24:46;;;;;;;6.97;2.95;;;23.60;95.60;;;;;;6259100;28;20046;-80
2023/08/27 13:27:47;;;;;;;2.13;1.90;;;23.60;94.80;;;;;;6256879;28;20076;-80
2023/08/27 13:30:49;;;;;;;3.83;2.28;;;23.60;94.60;;;;;;6259730;28;20046;-81
2023/08/27 13:33:52;;;;;;;3.05;1.30;;;23.50;94.40;;;;;;6259090;28;20048;-82
2023/08/27 13:36:55;;;;;;;2.85;1.88;;;23.50;93.90;;;;;;6258026;28;20129;-80
2023/08/27 13:39:57;;;;;;;2.92;1.75;;;23.50;94.00;;;;;;6256080;28;20058;-81
2023/08/27 13:42:58;;;;;;;4.25;1.77;;;23.40;93.70;;;;;;6257928;28;20092;-80
2023/08/27 13:46:00;;;;;;;3.72;1.65;;;23.40;93.60;;;;;;6257382;28;20067;-81
2023/08/27 13:49:03;;;;;;;2.92;2.40;;;23.30;93.60;;;;;;6257371;28;20060;-80
2023/08/27 13:52:05;;;;;;;2.40;2.17;;;23.10;93.80;;;;;;6256046;28;20524;-79
2023/08/27 13:55:08;;;;;;;6.53;2.97;;;23.00;94.10;;;;;;6256319;28;20487;-79
2023/08/27 13:58:10;;;;;;;7.90;2.10;;;23.00;94.40;;;;;;6256056;28;20048;-81
2023/08/27 14:01:12;;;;;;;3.47;1.65;;;23.00;94.10;;;;;;6258502;28;20063;-82
2023/08/27 14:04:15;;;;;;;1.95;1.67;;;22.60;94.20;;;;;;6257742;28;20128;-82
2023/08/27 14:07:17;;;;;;;5.90;1.98;;;22.40;94.20;;;;;;6260852;28;20485;-82
2023/08/27 14:10:19;;;;;;;1.50;1.40;;;22.20;94.10;;;;;;6259209;28;20124;-81
2023/08/27 14:13:20;;;;;;;1.50;1.40;;;22.00;94.20;;;;;;6258214;28;20050;-81
2023/08/27 14:16:22;;;;;;;1.88;1.48;;;21.90;94.30;;;;;;6257164;28;20038;-81
2023/08/27 14:19:25;;;;;;;5.88;1.98;;;21.70;94.30;;;;;;6254888;28;20042;-82
2023/08/27 14:22:28;;;;;;;1.67;1.50;;;21.60;94.70;;;;;;6257723;28;20046;-81
2023/08/27 14:25:29;;;;;;;4.85;1.63;;;21.50;94.50;;;;;;6260546;28;20049;-82
2023/08/27 14:28:31;;;;;;;1.80;1.70;;;21.30;94.80;;;;;;6260074;28;20067;-82
2023/08/27 14:31:33;;;;;;;2.72;1.73;;;21.20;95.00;;;;;;6265483;28;20069;-83
2023/08/27 14:34:36;;;;;;;3.15;1.95;;;21.10;95.00;;;;;;6262726;28;20049;-81
2023/08/27 14:37:38;;;;;;;1.73;1.45;;;21.00;95.00;;;;;;6267166;28;20411;-82
2023/08/27 14:40:40;;;;;;;5.70;1.70;;;20.80;95.20;;;;;;6265195;28;20050;-79
2023/08/27 14:43:42;;;;;;;4.93;1.80;;;20.80;95.40;;;;;;6266160;28;20488;-82
2023/08/27 14:46:43;;;;;;;2.28;2.08;;;20.80;95.70;;;;;;6261590;28;20063;-81
2023/08/27 14:49:46;;;;;;;2.13;1.30;;;20.80;95.80;;;;;;6256276;28;20415;-81
2023/08/27 14:52:48;;;;;;;1.83;1.40;;;20.80;96.10;;;;;;6255641;28;20419;-81
2023/08/27 14:55:50;;;;;;;3.35;1.48;;;20.80;96.30;;;;;;6256377;28;20060;-82
2023/08/27 14:58:52;;;;;;;4.32;1.73;;;21.00;96.30;;;;;;6251103;28;20051;-81
2023/08/27 15:01:54;;;;;;;2.78;1.60;;;21.00;96.40;;;;;;6255006;28;20048;-83
2023/08/27 15:04:57;;;;;;;3.30;1.77;;;21.00;96.30;;;;;;6253041;28;20045;-81
2023/08/27 15:07:59;;;;;;;2.38;1.48;;;21.00;96.40;;;;;;6255491;28;20061;-82
2023/08/27 15:11:01;;;;;;;2.95;1.90;;;20.90;96.60;;;;;;6257670;28;20049;-82
2023/08/27 15:14:02;;;;;;;2.05;1.58;;;20.80;96.80;;;;;;6259993;28;20109;-82
2023/08/27 15:17:04;;;;;;;3.30;1.75;;;20.80;97.20;;;;;;6257792;28;20052;-81
2023/08/27 15:20:09;;;;;;;3.03;1.23;;;20.60;97.30;;;;;;6254795;28;20056;-83
2023/08/27 15:23:10;;;;;;;1.58;1.48;;;20.50;97.50;;;;;;6255984;28;20053;-81
2023/08/27 15:26:12;;;;;;;2.28;1.77;;;20.30;97.60;;;;;;6255200;28;20104;-81
2023/08/27 15:29:14;;;;;;;2.00;1.80;;;20.20;97.90;;;;;;6253767;28;20045;-82
2023/08/27 15:32:16;;;;;;;2.28;1.23;;;20.20;98.00;;;;;;6255728;28;20045;-83
2023/08/27 15:35:19;;;;;;;1.80;1.35;;;20.20;98.30;;;;;;6256490;28;20057;-82
2023/08/27 15:38:21;;;;;;;2.55;1.50;;;20.20;98.40;;;;;;6262373;28;20045;-81
2023/08/27 15:41:22;;;;;;;1.75;1.50;;;20.20;98.60;;;;;;6262788;28;20046;-82
2023/08/27 15:44:24;;;;;;;1.70;1.23;;;20.10;98.70;;;;;;6263278;28;20101;-82
2023/08/27 15:47:29;;;;;;;2.33;1.30;;;20.00;98.90;;;;;;6259424;28;20057;-82
2023/08/27 15:50:32;;;;;;;2.25;1.52;;;20.00;99.20;;;;;;6256747;28;20049;-82